Time;durP1;ratioP1;P1;durP2;ratioP2;P2;SDS_P1;SDS_P2;PMS_P1;PMS_P2;Temp;Humidity;BMP_temperature;BMP_pressure;BME280_temperature;BME280_humidity;BME280_pressure;Samples;Min_cycle;Max_cycle;Signal;HPM_P1;HPM_P2
2022/08/03 00:01:10;;;;;;;26.37;18.67;;;;;;;19.47;100.00;99421.37;1744277;82;21706;-80
2022/08/03 00:04:17;;;;;;;25.65;17.67;;;;;;;19.46;100.00;99418.31;1745642;82;21170;-79
2022/08/03 00:07:23;;;;;;;18.77;16.87;;;;;;;19.48;100.00;99419.44;1744704;82;21213;-78
2022/08/03 00:10:30;;;;;;;21.93;15.98;;;;;;;19.48;100.00;99420.30;1744811;82;21174;-79
2022/08/03 00:13:35;;;;;;;18.98;16.77;;;;;;;19.33;100.00;99420.89;1744493;82;21217;-79
2022/08/03 00:16:41;;;;;;;20.82;16.23;;;;;;;19.34;100.00;99422.59;1745622;82;21165;-79
2022/08/03 00:19:46;;;;;;;21.17;16.67;;;;;;;19.37;100.00;99421.23;1745484;82;21165;-79
2022/08/03 00:22:51;;;;;;;21.37;17.50;;;;;;;19.37;100.00;99418.45;1744592;82;21186;-79
2022/08/03 00:25:57;;;;;;;23.65;18.62;;;;;;;19.37;100.00;99417.07;1745547;82;21157;-79
2022/08/03 00:29:02;;;;;;;22.95;20.52;;;;;;;19.35;100.00;99416.50;1744166;82;21460;-80
2022/08/03 00:32:08;;;;;;;24.52;21.90;;;;;;;19.33;100.00;99415.91;1744156;82;21205;-79
2022/08/03 00:35:15;;;;;;;21.85;19.07;;;;;;;19.33;100.00;99408.97;1745527;82;21205;-78
2022/08/03 00:38:24;;;;;;;22.32;18.55;;;;;;;19.40;100.00;99411.03;1744448;82;21793;-80
2022/08/03 00:41:31;;;;;;;20.70;17.87;;;;;;;19.48;100.00;99413.89;1744399;82;21150;-79
2022/08/03 00:44:37;;;;;;;21.52;19.15;;;;;;;19.49;100.00;99415.04;1745554;82;21209;-79
2022/08/03 00:47:43;;;;;;;21.60;18.35;;;;;;;19.44;100.00;99409.42;1745010;82;21244;-80
2022/08/03 00:50:50;;;;;;;21.60;18.40;;;;;;;19.47;100.00;99410.83;1745244;82;21196;-79
2022/08/03 00:53:56;;;;;;;22.22;18.35;;;;;;;19.47;100.00;99411.66;1746383;82;21233;-80
2022/08/03 00:57:02;;;;;;;23.98;19.50;;;;;;;19.50;100.00;99406.17;1825575;78;21212;-79
2022/08/03 01:00:07;;;;;;;22.85;19.92;;;;;;;19.37;100.00;99401.83;1825622;78;21162;-79
2022/08/03 01:03:06;;;;;;;22.47;19.87;;;;;;;19.35;100.00;99406.80;1752303;82;21198;-79
2022/08/03 01:06:27;;;;;;;23.70;20.65;;;;;;;19.37;100.00;99401.83;1825587;78;21205;-79
2022/08/03 01:09:54;;;;;;;21.77;18.30;;;;;;;19.39;100.00;99401.88;1752749;82;21194;-79
2022/08/03 01:13:15;;;;;;;24.20;19.17;;;;;;;19.40;100.00;99401.32;1792308;78;21695;-79
2022/08/03 01:16:46;;;;;;;20.85;17.55;;;;;;;19.40;100.00;99393.84;1752478;82;21181;-79
2022/08/03 01:20:17;;;;;;;21.50;17.55;;;;;;;19.38;100.00;99400.72;1825768;78;21154;-79
2022/08/03 01:23:36;;;;;;;26.20;19.82;;;;;;;19.43;100.00;99396.63;1752359;82;21186;-79
2022/08/03 01:27:14;;;;;;;23.32;18.35;;;;;;;19.46;100.00;99389.20;1825681;78;21734;-79
2022/08/03 01:30:20;;;;;;;26.97;17.77;;;;;;;19.45;100.00;99388.91;1825779;78;21150;-80
2022/08/03 01:33:32;;;;;;;19.50;17.25;;;;;;;19.28;100.00;99391.72;1824429;78;21178;-80
2022/08/03 01:36:44;;;;;;;25.08;18.00;;;;;;;19.23;100.00;99387.48;1752900;82;21210;-80
2022/08/03 01:39:50;;;;;;;24.07;17.65;;;;;;;19.21;100.00;99384.70;1824139;78;21216;-79
2022/08/03 01:42:56;;;;;;;20.25;17.48;;;;;;;19.19;100.00;99385.48;1752104;82;21173;-80
2022/08/03 01:46:03;;;;;;;23.65;17.10;;;;;;;19.22;100.00;99389.97;1738216;82;21162;-79
2022/08/03 01:49:09;;;;;;;21.15;16.65;;;;;;;19.18;100.00;99387.41;1825494;78;21718;-79
2022/08/03 01:52:17;;;;;;;20.90;17.73;;;;;;;19.11;100.00;99379.30;1824588;78;21158;-80
2022/08/03 01:55:27;;;;;;;19.17;17.10;;;;;;;19.21;100.00;99390.23;1825947;78;21789;-80
2022/08/03 01:58:34;;;;;;;19.75;17.40;;;;;;;19.21;100.00;99390.23;1744732;82;21190;-80
2022/08/03 02:01:39;;;;;;;20.45;17.20;;;;;;;19.18;100.00;99387.41;1775625;81;21185;-79
2022/08/03 02:04:45;;;;;;;21.35;17.73;;;;;;;19.22;100.00;99394.13;1744949;82;21173;-79
2022/08/03 02:07:51;;;;;;;20.32;16.55;;;;;;;19.20;100.00;99387.18;1774768;81;21229;-80
2022/08/03 02:10:56;;;;;;;26.27;19.37;;;;;;;19.18;100.00;99391.57;1729535;82;21173;-80
2022/08/03 02:14:02;;;;;;;23.57;19.02;;;;;;;19.18;100.00;99387.97;1776195;81;21209;-80
2022/08/03 02:17:08;;;;;;;25.60;19.48;;;;;;;19.18;100.00;99386.58;1745338;82;21189;-80
2022/08/03 02:20:15;;;;;;;22.55;18.25;;;;;;;19.22;100.00;99391.36;1774417;81;21181;-80
2022/08/03 02:23:23;;;;;;;23.73;20.08;;;;;;;19.24;100.00;99398.02;1744479;82;21236;-80
2022/08/03 02:26:29;;;;;;;22.55;18.75;;;;;;;19.31;100.00;99398.14;1776151;81;21284;-79
2022/08/03 02:29:39;;;;;;;25.25;21.23;;;;;;;19.28;100.00;99408.34;1745724;82;21201;-79
2022/08/03 02:32:47;;;;;;;;;;;;;;;19.24;100.00;99408.56;1778051;81;21212;-79
2022/08/03 02:35:53;;;;;;;26.02;22.07;;;;;;;19.29;100.00;99405.02;1775957;81;20617;-79
2022/08/03 02:39:04;;;;;;;25.62;22.30;;;;;;;19.32;100.00;99407.30;1731085;82;21232;-79
2022/08/03 02:42:09;;;;;;;31.00;21.30;;;;;;;19.41;100.00;99404.38;1774737;81;21188;-79
2022/08/03 02:45:18;;;;;;;24.00;20.32;;;;;;;19.57;100.00;99406.80;1744290;82;21157;-79
2022/08/03 02:48:30;;;;;;;27.50;22.35;;;;;;;19.72;100.00;99400.67;1774954;81;21738;-79
2022/08/03 02:51:39;;;;;;;25.60;21.02;;;;;;;19.79;100.00;99400.75;1745574;82;21185;-80
2022/08/03 02:54:45;;;;;;;28.50;21.05;;;;;;;19.86;100.00;99406.13;1775678;81;21256;-79
2022/08/03 02:57:51;;;;;;;26.02;20.45;;;;;;;20.00;100.00;99408.78;1756992;81;21249;-79
2022/08/03 03:00:59;;;;;;;24.92;21.57;;;;;;;20.06;100.00;99409.67;1770457;81;21173;-80
2022/08/03 03:04:06;;;;;;;24.98;21.48;;;;;;;20.07;100.00;99405.24;1757227;81;21170;-80
2022/08/03 03:07:11;;;;;;;23.60;19.65;;;;;;;20.10;100.00;99414.45;1768898;81;21264;-80
2022/08/03 03:10:18;;;;;;;23.85;20.68;;;;;;;20.12;100.00;99419.17;1769682;81;21177;-80
2022/08/03 03:13:24;;;;;;;25.17;19.67;;;;;;;20.09;100.00;99411.39;1769318;81;21232;-80
2022/08/03 03:16:30;;;;;;;24.75;19.75;;;;;;;20.10;100.00;99412.23;1758563;81;21750;-80
2022/08/03 03:19:34;;;;;;;27.35;21.27;;;;;;;20.09;100.00;99411.91;1770507;81;21170;-80
2022/08/03 03:22:40;;;;;;;24.37;21.15;;;;;;;20.10;100.00;99413.06;1757816;81;21181;-80
2022/08/03 03:25:45;;;;;;;27.93;22.75;;;;;;;20.10;100.00;99414.45;1769641;81;21276;-79
2022/08/03 03:28:51;;;;;;;29.42;22.22;;;;;;;20.20;100.00;99422.60;1757188;81;21173;-80
2022/08/03 03:31:57;;;;;;;25.70;21.82;;;;;;;20.30;100.00;99416.60;1770334;81;21229;-79
2022/08/03 03:35:04;;;;;;;25.10;21.65;;;;;;;20.33;100.00;99418.03;1758378;81;21150;-79
2022/08/03 03:38:10;;;;;;;30.80;21.93;;;;;;;20.45;100.00;99420.08;1769379;81;21192;-79
2022/08/03 03:41:15;;;;;;;25.35;21.45;;;;;;;20.58;100.00;99414.13;1757567;81;21734;-80
2022/08/03 03:44:21;;;;;;;23.20;20.75;;;;;;;20.66;100.00;99412.27;1745963;81;21169;-80
2022/08/03 03:47:26;;;;;;;24.05;21.10;;;;;;;20.80;100.00;99416.01;1758017;81;21205;-79
2022/08/03 03:50:32;;;;;;;25.77;20.48;;;;;;;21.00;100.00;99423.66;1770394;81;21149;-80
2022/08/03 03:53:37;;;;;;;22.58;19.62;;;;;;;21.18;100.00;99425.47;1756999;81;21773;-80
2022/08/03 04:13:10;;;;;;;29.18;19.67;;;;;;;22.08;100.00;99422.63;1736326;82;21212;-79
2022/08/03 04:16:18;;;;;;;22.48;17.65;;;;;;;22.13;100.00;99422.67;1737267;82;21181;-79
2022/08/03 04:19:35;;;;;;;23.90;17.67;;;;;;;22.21;100.00;99425.49;1737108;82;21757;-79
2022/08/03 04:22:40;;;;;;;23.50;18.73;;;;;;;22.29;100.00;99422.15;1736728;82;21197;-80
2022/08/03 04:25:47;;;;;;;19.87;16.97;;;;;;;22.43;100.00;99416.89;1747643;82;21837;-79
2022/08/03 04:28:53;;;;;;;22.20;18.40;;;;;;;22.58;100.00;99419.69;1747485;82;21220;-80
2022/08/03 04:31:59;;;;;;;25.02;18.42;;;;;;;22.80;100.00;99413.03;1748860;82;21238;-80
2022/08/03 04:35:04;;;;;;;21.45;18.60;;;;;;;23.03;100.00;99422.27;1748203;82;21256;-79
2022/08/03 04:38:12;;;;;;;22.55;18.52;;;;;;;23.15;100.00;99422.82;1748131;82;21212;-80
2022/08/03 04:41:18;;;;;;;23.83;18.90;;;;;;;23.21;100.00;99424.48;1747734;82;21180;-80
2022/08/03 04:44:24;;;;;;;33.92;20.90;;;;;;;23.28;100.00;99428.92;1748863;82;21213;-80
2022/08/03 04:47:29;;;;;;;23.00;19.35;;;;;;;23.36;99.43;99436.73;1748568;82;21761;-79
2022/08/03 04:50:34;;;;;;;23.90;20.50;;;;;;;23.32;98.98;99441.20;1748232;82;21773;-80
2022/08/03 04:53:39;;;;;;;30.43;23.10;;;;;;;23.33;97.89;99440.91;1747849;82;21204;-79
2022/08/03 04:56:51;;;;;;;24.02;21.12;;;;;;;23.36;98.71;99433.95;1720033;82;21223;-79
2022/08/03 05:00:02;;;;;;;27.55;21.65;;;;;;;23.49;98.39;99436.16;1717840;83;21194;-80
2022/08/03 05:03:09;;;;;;;24.67;22.13;;;;;;;23.66;97.29;99434.45;1716942;83;21818;-80
2022/08/03 05:06:17;;;;;;;25.77;21.90;;;;;;;23.82;96.42;99432.47;1709393;83;21772;-79
2022/08/03 05:09:23;;;;;;;26.05;20.68;;;;;;;23.83;95.84;99441.11;1705011;84;21194;-80
2022/08/03 05:12:30;;;;;;;31.62;19.02;;;;;;;23.78;96.24;99438.34;1703764;84;21222;-80
2022/08/03 05:15:35;;;;;;;24.30;19.60;;;;;;;23.69;96.98;99436.13;1704620;84;21192;-79
2022/08/03 05:18:41;;;;;;;21.40;16.50;;;;;;;23.70;98.39;99444.77;1703546;84;21234;-80
2022/08/03 05:21:47;;;;;;;25.35;17.82;;;;;;;23.84;98.85;99449.75;1703817;84;21254;-79
2022/08/03 05:24:52;;;;;;;20.80;16.15;;;;;;;23.96;97.52;99447.48;1719130;83;21205;-80
2022/08/03 05:27:58;;;;;;;27.48;17.80;;;;;;;23.97;97.88;99451.95;1702922;84;21235;-80
2022/08/03 05:31:04;;;;;;;21.33;18.12;;;;;;;23.92;96.22;99451.97;1707077;83;21165;-80
2022/08/03 05:34:09;;;;;;;21.65;15.80;;;;;;;23.88;97.33;99448.07;1709440;83;21158;-80
2022/08/03 05:37:08;;;;;;;24.92;15.85;;;;;;;23.96;97.78;99451.68;1707892;83;21249;-81
2022/08/03 05:40:13;;;;;;;26.75;15.15;;;;;;;24.06;98.10;99459.17;1714820;83;21149;-80
2022/08/03 05:43:18;;;;;;;16.52;14.73;;;;;;;24.19;96.97;99458.56;1714012;83;21186;-80
2022/08/03 05:46:25;;;;;;;20.77;14.43;;;;;;;24.27;96.17;99460.73;1733624;82;21655;-80
2022/08/03 05:49:32;;;;;;;16.20;11.90;;;;;;;24.38;95.59;99463.80;1727223;83;21168;-80
2022/08/03 05:52:38;;;;;;;15.45;12.18;;;;;;;24.60;94.07;99468.14;1726800;83;21192;-80
2022/08/03 05:55:44;;;;;;;18.32;12.23;;;;;;;24.87;91.57;99471.31;1727167;83;21236;-80
2022/08/03 05:58:53;;;;;;;15.68;12.30;;;;;;;25.18;90.73;99476.14;1725573;83;21240;-80
2022/08/03 06:01:59;;;;;;;14.65;11.93;;;;;;;25.49;89.11;99473.88;1727148;83;21256;-80
2022/08/03 06:05:04;;;;;;;16.30;12.78;;;;;;;25.74;86.66;99477.00;1727085;83;21722;-80
2022/08/03 06:08:08;;;;;;;25.27;15.88;;;;;;;25.78;84.72;99477.81;1733455;82;21181;-80
2022/08/03 06:11:15;;;;;;;26.52;19.45;;;;;;;25.82;85.09;99478.33;1736290;82;21220;-80
2022/08/03 06:14:20;;;;;;;27.75;20.52;;;;;;;25.91;86.05;99485.52;1736721;82;21750;-80
2022/08/03 06:17:26;;;;;;;23.45;18.40;;;;;;;25.95;85.48;99488.00;1736073;82;21738;-81
2022/08/03 06:20:29;;;;;;;26.52;19.35;;;;;;;25.97;84.44;99487.12;1733289;82;21204;-80
2022/08/03 06:23:34;;;;;;;30.95;20.20;;;;;;;25.92;84.34;99495.59;1706987;84;21249;-80
2022/08/03 06:26:41;;;;;;;21.80;18.65;;;;;;;25.88;84.57;99492.56;1729861;82;21201;-80
2022/08/03 06:29:48;;;;;;;20.12;15.65;;;;;;;25.91;83.50;99496.72;1709425;82;21165;-80
2022/08/03 06:32:48;;;;;;;21.57;15.25;;;;;;;25.90;82.76;99492.27;1707832;84;21552;-80
2022/08/03 06:35:54;;;;;;;24.25;14.98;;;;;;;25.85;82.48;99489.52;1715500;82;21221;-80
2022/08/03 06:38:59;;;;;;;20.00;14.90;;;;;;;25.81;81.36;99490.67;1737689;82;21213;-80
2022/08/03 06:42:05;;;;;;;19.02;15.18;;;;;;;25.82;80.77;99497.94;1727659;82;21160;-80
2022/08/03 06:45:13;;;;;;;25.35;15.38;;;;;;;25.82;80.31;99497.10;1736981;82;21156;-80
2022/08/03 06:48:19;;;;;;;18.77;14.25;;;;;;;25.81;79.43;99501.05;1722819;82;21726;-80
2022/08/03 06:51:25;;;;;;;16.25;14.55;;;;;;;25.78;78.86;99498.83;1718559;82;21145;-80
2022/08/03 06:54:33;;;;;;;18.48;14.15;;;;;;;25.70;79.41;99501.12;1716569;82;21456;-80
2022/08/03 06:57:39;;;;;;;17.40;15.20;;;;;;;25.70;78.67;99509.52;1721841;82;21662;-79
2022/08/03 07:00:45;;;;;;;21.07;15.28;;;;;;;25.74;78.25;99507.80;1718425;82;21212;-80
2022/08/03 07:03:44;;;;;;;18.73;16.73;;;;;;;25.71;78.56;99516.79;1721336;82;21184;-80
2022/08/03 07:06:51;;;;;;;18.27;16.05;;;;;;;25.79;78.37;99515.35;1699160;83;21206;-81
2022/08/03 07:09:58;;;;;;;19.02;16.10;;;;;;;25.72;78.55;99518.45;1670057;85;21245;-81
2022/08/03 07:13:05;;;;;;;18.12;15.18;;;;;;;25.70;78.39;99522.13;1670752;85;21197;-81
2022/08/03 07:16:05;;;;;;;20.85;18.50;;;;;;;25.66;78.84;99523.02;1675370;85;21242;-80
2022/08/03 07:19:11;;;;;;;20.17;18.05;;;;;;;25.64;77.94;99529.45;1676557;85;21536;-80
2022/08/03 07:22:16;;;;;;;24.20;18.73;;;;;;;25.52;78.46;99533.23;1677905;85;21805;-80
2022/08/03 07:25:22;;;;;;;20.35;17.05;;;;;;;25.42;79.09;99534.16;1677925;85;21208;-80
2022/08/03 07:28:28;;;;;;;18.30;16.32;;;;;;;25.39;79.27;99536.95;1674285;85;21189;-80
2022/08/03 07:31:33;;;;;;;18.62;16.62;;;;;;;25.41;78.98;99536.69;1690070;85;21572;-80
2022/08/03 07:34:39;;;;;;;21.15;16.50;;;;;;;25.39;77.93;99534.16;1690470;85;21241;-80
2022/08/03 07:37:44;;;;;;;21.52;17.17;;;;;;;25.38;78.91;99534.46;1689873;85;21767;-80
2022/08/03 07:40:52;;;;;;;17.75;15.88;;;;;;;25.50;78.87;99536.30;1690902;85;21256;-80
2022/08/03 07:43:58;;;;;;;22.48;15.45;;;;;;;25.62;77.99;99540.95;1672325;85;21187;-80
2022/08/03 07:47:03;;;;;;;22.52;15.80;;;;;;;25.74;77.04;99543.38;1678498;84;21185;-80
2022/08/03 07:50:12;;;;;;;18.67;15.28;;;;;;;25.85;76.32;99547.77;1664221;84;21533;-80
2022/08/03 07:53:18;;;;;;;18.00;16.10;;;;;;;25.85;75.73;99545.55;1683860;84;21224;-80
2022/08/03 07:56:27;;;;;;;20.80;17.02;;;;;;;25.96;76.38;99545.69;1681083;85;21157;-81
2022/08/03 07:59:31;;;;;;;;;;;;;;;26.21;76.34;99548.23;1677899;84;21222;-81
2022/08/03 08:02:38;;;;;;;16.00;14.05;;;;;;;26.53;75.10;99548.70;1687059;83;20595;-81
2022/08/03 08:05:42;;;;;;;17.73;13.18;;;;;;;26.69;74.13;99552.41;1683326;85;21200;-81
2022/08/03 08:08:48;;;;;;;14.85;12.80;;;;;;;26.80;71.49;99550.86;1677272;83;21173;-81
2022/08/03 08:11:53;;;;;;;13.40;11.83;;;;;;;26.90;69.69;99550.72;1712449;83;21261;-79
2022/08/03 08:14:58;;;;;;;13.68;11.12;;;;;;;27.03;69.47;99556.15;1706426;83;22023;-80
2022/08/03 08:18:05;;;;;;;14.43;10.80;;;;;;;27.08;68.58;99555.53;1704390;83;21290;-80
2022/08/03 08:21:11;;;;;;;15.53;11.88;;;;;;;27.23;69.28;99567.92;1694672;83;21139;-81
2022/08/03 08:24:18;;;;;;;15.05;12.53;;;;;;;27.22;69.07;99559.23;1697430;84;21819;-81
2022/08/03 08:27:25;;;;;;;13.08;11.78;;;;;;;27.33;68.72;99557.66;1697589;84;21662;-80
2022/08/03 08:30:32;;;;;;;12.10;10.80;;;;;;;27.57;68.25;99558.95;1705119;83;21219;-81
2022/08/03 08:33:38;;;;;;;15.60;10.85;;;;;;;27.83;67.94;99556.57;1709525;83;21287;-80
2022/08/03 08:36:45;;;;;;;11.70;10.30;;;;;;;28.18;66.96;99564.89;1709953;83;21163;-80
2022/08/03 08:39:51;;;;;;;11.75;10.23;;;;;;;28.36;65.05;99556.95;1754262;81;21129;-80
2022/08/03 08:42:57;;;;;;;16.27;11.38;;;;;;;28.44;64.13;99558.22;1753774;81;21151;-80
2022/08/03 08:46:09;;;;;;;13.15;10.95;;;;;;;28.43;63.90;99562.19;1758862;81;21743;-81
2022/08/03 08:49:15;;;;;;;16.80;11.00;;;;;;;28.40;63.86;99560.81;1753798;81;21163;-80
2022/08/03 08:52:21;;;;;;;17.92;12.25;;;;;;;28.41;64.19;99570.09;1752435;81;22090;-81
2022/08/03 08:55:29;;;;;;;12.90;10.08;;;;;;;28.39;63.28;99560.56;1754076;81;21177;-79
2022/08/03 08:58:38;;;;;;;14.65;11.22;;;;;;;28.37;63.51;99564.28;1752543;81;21171;-80
2022/08/03 09:01:45;;;;;;;14.55;12.43;;;;;;;28.51;63.71;99565.11;1748411;81;21263;-80
2022/08/03 09:04:51;;;;;;;17.23;12.33;;;;;;;28.66;63.50;99563.94;1756502;80;21210;-81
2022/08/03 09:07:58;;;;;;;16.05;12.47;;;;;;;28.59;61.53;99566.33;1743736;81;21592;-81
2022/08/03 09:11:04;;;;;;;16.73;12.30;;;;;;;28.34;63.02;99565.44;1703411;84;22159;-80
2022/08/03 09:14:10;;;;;;;14.68;11.35;;;;;;;28.27;63.09;99558.23;1766179;80;21406;-80
2022/08/03 09:17:18;;;;;;;16.85;12.28;;;;;;;28.25;63.26;99557.72;1775454;80;21201;-81
2022/08/03 09:20:24;;;;;;;13.35;11.78;;;;;;;28.21;62.78;99560.89;1767060;81;21737;-80
2022/08/03 09:23:31;;;;;;;13.00;11.38;;;;;;;28.12;63.24;99562.75;1770583;81;21777;-80
2022/08/03 09:26:41;;;;;;;13.50;10.58;;;;;;;28.09;63.78;99556.37;1748510;81;21194;-80
2022/08/03 09:29:48;;;;;;;11.38;9.05;;;;;;;27.87;62.64;99561.27;1740266;82;21159;-80
2022/08/03 09:32:48;;;;;;;12.00;9.73;;;;;;;27.66;63.98;99564.96;1740588;81;21222;-80
2022/08/03 09:35:55;;;;;;;12.65;8.83;;;;;;;27.68;64.56;99569.72;1741053;82;21271;-80
2022/08/03 09:39:12;;;;;;;11.50;8.13;;;;;;;27.82;63.75;99567.55;1740963;82;21262;-80
2022/08/03 09:42:22;;;;;;;11.03;7.85;;;;;;;27.82;63.75;99567.55;1746907;81;21184;-80
2022/08/03 09:45:33;;;;;;;9.23;6.90;;;;;;;27.86;63.69;99565.80;1769881;81;21746;-80
2022/08/03 09:48:39;;;;;;;10.30;8.38;;;;;;;28.08;62.08;99563.68;1740441;82;21209;-80
2022/08/03 09:51:37;;;;;;;;;;;;;;;28.08;62.08;99563.68;1755301;81;21145;-80
2022/08/03 09:54:44;;;;;;;11.38;8.25;;;;;;;28.30;62.19;99572.83;1743723;81;20191;-80
2022/08/03 09:57:50;;;;;;;10.63;7.67;;;;;;;28.30;62.19;99572.83;1757350;81;21769;-81
2022/08/03 10:01:10;;;;;;;9.88;7.50;;;;;;;28.34;61.38;99578.09;1759358;80;21177;-80
2022/08/03 10:04:21;;;;;;;8.08;7.00;;;;;;;28.42;61.71;99580.18;1758140;81;21161;-80
2022/08/03 10:07:26;;;;;;;7.53;6.67;;;;;;;28.48;61.40;99571.34;1744025;80;21221;-80
2022/08/03 10:10:27;;;;;;;8.60;7.20;;;;;;;28.55;60.35;99573.73;1760960;81;21201;-80
2022/08/03 10:13:33;;;;;;;10.48;7.03;;;;;;;28.65;60.22;99574.91;1771183;80;21499;-81
2022/08/03 10:16:45;;;;;;;9.33;7.33;;;;;;;28.74;59.81;99570.80;1775755;80;21150;-80
2022/08/03 10:19:50;;;;;;;19.52;7.28;;;;;;;28.81;59.54;99577.42;1779113;80;21189;-81
2022/08/03 10:22:58;;;;;;;8.10;7.08;;;;;;;28.82;58.67;99577.67;1778301;80;21208;-80
2022/08/03 10:26:08;;;;;;;8.48;6.60;;;;;;;28.69;58.64;99577.94;1764316;80;21229;-80
2022/08/03 10:29:18;;;;;;;7.40;6.33;;;;;;;28.65;59.22;99579.71;1778658;80;21161;-80
2022/08/03 10:32:44;;;;;;;8.05;6.47;;;;;;;28.62;59.50;99582.59;1750181;80;21157;-81
2022/08/03 10:35:50;;;;;;;7.05;5.47;;;;;;;28.63;59.90;99587.06;1770075;80;21145;-81
2022/08/03 10:38:58;;;;;;;10.23;5.62;;;;;;;28.64;59.19;99577.47;1780183;80;21706;-81
2022/08/03 10:42:08;;;;;;;8.30;6.05;;;;;;;28.51;58.89;99576.91;1748006;82;21176;-80
2022/08/03 10:45:25;;;;;;;5.85;4.87;;;;;;;28.45;58.73;99575.35;1773594;80;21165;-79
2022/08/03 10:48:31;;;;;;;7.28;5.30;;;;;;;28.39;58.49;99576.03;1779318;80;21867;-79
2022/08/03 10:51:32;;;;;;;8.65;4.90;;;;;;;28.34;58.56;99578.09;1778448;80;21146;-79
2022/08/03 10:58:13;;;;;;;5.97;5.37;;;;;;;28.52;60.11;99584.22;1766959;80;21209;-80
2022/08/03 11:01:20;;;;;;;6.67;5.22;;;;;;;28.55;58.84;99592.01;1750521;80;21133;-80
2022/08/03 11:04:28;;;;;;;5.95;5.00;;;;;;;28.53;59.31;99588.69;1761863;80;21149;-80
2022/08/03 11:07:33;;;;;;;5.70;4.80;;;;;;;28.64;58.91;99591.54;1759472;80;21700;-80
2022/08/03 11:10:39;;;;;;;5.25;4.50;;;;;;;28.64;57.81;99578.05;1762864;80;21139;-80
2022/08/03 11:13:45;;;;;;;6.03;5.20;;;;;;;28.60;57.51;99575.60;1765097;80;21554;-80
2022/08/03 11:16:53;;;;;;;6.08;4.70;;;;;;;28.60;58.11;99571.38;1766655;80;21264;-80
2022/08/03 11:20:00;;;;;;;10.18;4.17;;;;;;;28.73;59.08;99571.37;1767635;80;21165;-80
2022/08/03 11:23:06;;;;;;;6.40;4.58;;;;;;;28.72;57.12;99573.93;1768569;80;21192;-80
2022/08/03 11:26:23;;;;;;;7.05;4.70;;;;;;;28.72;56.29;99575.34;1768548;80;21136;-80
2022/08/03 11:29:38;;;;;;;6.10;5.05;;;;;;;28.82;57.91;99569.23;1773675;80;21152;-81
2022/08/03 11:32:51;;;;;;;6.80;4.40;;;;;;;28.86;57.29;99571.67;1770274;80;21173;-81
2022/08/03 11:36:07;;;;;;;4.93;3.80;;;;;;;28.87;57.09;99564.31;1767404;80;21141;-81
2022/08/03 11:39:21;;;;;;;4.22;3.50;;;;;;;28.90;56.11;99565.67;1766322;80;21161;-79
2022/08/03 11:42:35;;;;;;;4.47;3.62;;;;;;;28.86;54.32;99566.87;1770371;80;21700;-79
2022/08/03 11:45:42;;;;;;;7.53;3.70;;;;;;;28.70;54.12;99573.42;1768021;80;21712;-80
2022/08/03 11:48:57;;;;;;;4.50;3.83;;;;;;;28.52;54.94;99571.56;1729245;82;21207;-80
2022/08/03 11:52:01;;;;;;;4.25;3.42;;;;;;;28.37;55.05;99576.07;1728203;83;21218;-80
2022/08/03 11:55:07;;;;;;;6.70;3.60;;;;;;;28.16;56.42;99564.38;1726916;83;21175;-80
2022/08/03 11:58:13;;;;;;;4.47;3.12;;;;;;;28.06;57.72;99559.78;1743454;82;21235;-80
2022/08/03 12:01:20;;;;;;;3.95;2.72;;;;;;;28.12;57.76;99557.13;1692250;84;21185;-80
2022/08/03 12:04:25;;;;;;;3.62;2.85;;;;;;;28.25;57.15;99570.37;1702986;84;21678;-81
2022/08/03 12:07:31;;;;;;;3.02;2.70;;;;;;;28.34;56.10;99565.44;1729995;81;22141;-80
2022/08/03 12:10:38;;;;;;;2.60;2.40;;;;;;;28.31;56.31;99560.42;1726897;82;21168;-80
2022/08/03 12:13:55;;;;;;;4.33;2.80;;;;;;;28.25;55.69;99592.86;1735534;82;21713;-80
2022/08/03 12:37:02;;;;;;;4.65;2.35;;;;;;;27.81;55.35;99544.79;1766610;80;21276;-80
2022/08/03 12:40:09;;;;;;;3.22;2.15;;;;;;;27.76;55.90;99547.15;1702047;84;21161;-80
2022/08/03 12:45:57;;;;;;;2.42;2.22;;;;;;;27.84;56.13;99541.38;1862138;76;22172;-79
2022/08/03 12:49:18;;;;;;;2.58;1.95;;;;;;;27.72;56.11;99532.05;1784364;80;21178;-80
2022/08/03 12:52:26;;;;;;;4.22;2.30;;;;;;;27.70;56.27;99536.52;1783912;80;21289;-80
2022/08/03 12:55:33;;;;;;;2.58;1.65;;;;;;;27.67;55.67;99530.71;1783906;80;21182;-80
2022/08/03 12:58:42;;;;;;;2.90;1.90;;;;;;;27.57;55.29;99531.73;1783253;80;21166;-80
2022/08/03 13:01:47;;;;;;;3.20;1.72;;;;;;;27.45;56.54;99527.15;1785657;80;21208;-80
2022/08/03 13:04:54;;;;;;;2.90;1.65;;;;;;;27.56;57.06;99527.22;1783762;80;21194;-80
2022/08/03 13:08:00;;;;;;;2.72;1.60;;;;;;;27.64;56.41;99527.93;1784247;80;22142;-80
2022/08/03 13:11:27;;;;;;;3.55;1.55;;;;;;;27.63;56.43;99522.06;1784884;80;21166;-81
2022/08/03 13:14:34;;;;;;;1.77;1.40;;;;;;;27.51;56.58;99517.48;1766241;80;21233;-80
2022/08/03 13:17:42;;;;;;;1.67;1.57;;;;;;;27.44;56.66;99519.30;1783677;80;21824;-79
2022/08/03 13:20:49;;;;;;;1.55;1.45;;;;;;;27.43;56.43;99519.59;1785636;80;21166;-80
2022/08/03 13:23:55;;;;;;;2.08;1.57;;;;;;;27.46;56.26;99521.80;1784542;80;21781;-80
2022/08/03 13:27:03;;;;;;;2.25;1.57;;;;;;;27.47;55.79;99524.86;1786057;80;21200;-80
2022/08/03 13:30:10;;;;;;;1.60;1.50;;;;;;;27.51;56.11;99521.70;1783952;80;21219;-80
2022/08/03 13:33:17;;;;;;;1.70;1.42;;;;;;;27.53;55.16;99536.28;1784081;80;21201;-80
2022/08/03 13:36:23;;;;;;;1.90;1.30;;;;;;;27.40;54.94;99536.50;1784963;80;21221;-80
2022/08/03 13:39:31;;;;;;;2.02;1.50;;;;;;;27.33;54.66;99533.80;1815038;79;21157;-80
2022/08/03 13:42:39;;;;;;;2.40;1.50;;;;;;;27.33;55.19;99536.61;1815844;79;21200;-80
2022/08/03 13:45:38;;;;;;;1.57;1.22;;;;;;;27.35;55.20;99532.38;1809336;79;21169;-80
2022/08/03 13:56:04;;;;;;;3.25;1.40;;;;;;;27.40;55.11;99540.70;1858069;76;22224;-78
2022/08/03 13:59:10;;;;;;;2.35;1.70;;;;;;;27.37;55.40;99543.28;1721392;83;21164;-80
2022/08/03 14:02:16;;;;;;;2.42;1.32;;;;;;;27.30;55.45;99550.70;1736923;82;21213;-80
2022/08/03 14:05:22;;;;;;;3.00;1.42;;;;;;;27.16;56.05;99560.47;1736321;82;21240;-80
2022/08/03 14:08:29;;;;;;;2.35;1.35;;;;;;;27.11;55.92;99561.12;1736203;82;21777;-80
2022/08/03 14:11:35;;;;;;;1.40;1.30;;;;;;;27.06;55.80;99574.63;1748596;82;21237;-78
2022/08/03 14:14:41;;;;;;;2.62;1.32;;;;;;;27.05;55.92;99579.12;1727592;82;21232;-79
2022/08/03 14:17:48;;;;;;;1.77;1.25;;;;;;;27.12;55.07;99588.87;1748687;82;21224;-79
2022/08/03 14:20:54;;;;;;;1.50;1.40;;;;;;;27.07;54.55;99595.10;1748974;82;21157;-79
2022/08/03 14:23:56;;;;;;;2.12;1.30;;;;;;;26.96;54.46;99605.07;1748993;82;21725;-79
2022/08/03 14:27:02;;;;;;;1.30;1.05;;;;;;;26.96;54.17;99600.00;1748986;82;21240;-79
2022/08/03 14:30:08;;;;;;;2.17;1.00;;;;;;;26.96;54.57;99602.80;1748993;82;21173;-80
2022/08/03 14:33:14;;;;;;;2.17;1.02;;;;;;;27.03;54.63;99601.05;1748034;82;21209;-80
2022/08/03 14:36:21;;;;;;;3.10;0.90;;;;;;;27.13;53.27;99600.36;1747764;82;21251;-80
2022/08/03 14:39:26;;;;;;;1.72;1.00;;;;;;;27.14;54.20;99598.38;1748836;82;21204;-80
2022/08/03 14:42:34;;;;;;;1.55;1.32;;;;;;;27.17;53.71;99597.22;1747886;82;21209;-79
2022/08/03 14:45:39;;;;;;;1.15;1.05;;;;;;;27.14;52.79;99599.21;1742871;82;21168;-79
2022/08/03 14:48:45;;;;;;;1.40;1.02;;;;;;;27.11;53.19;99592.83;1733093;82;21173;-79
2022/08/03 14:51:52;;;;;;;1.25;1.15;;;;;;;27.04;53.87;99596.53;1742197;82;21784;-81
2022/08/03 14:54:52;;;;;;;4.70;1.10;;;;;;;27.07;54.14;99593.12;1739128;82;21201;-80
2022/08/03 14:58:04;;;;;;;1.32;1.17;;;;;;;27.13;54.85;99590.53;1726891;83;21202;-80
2022/08/03 15:01:07;;;;;;;3.05;1.15;;;;;;;27.17;55.04;99585.98;1700736;83;21749;-80
2022/08/03 15:04:14;;;;;;;1.22;1.12;;;;;;;27.25;54.73;99580.27;1697625;84;21708;-80
2022/08/03 15:07:21;;;;;;;1.80;1.05;;;;;;;27.27;54.71;99576.58;1743236;81;21205;-80
2022/08/03 15:10:27;;;;;;;2.52;1.32;;;;;;;27.19;54.94;99574.45;1764314;80;21212;-80
2022/08/03 15:13:24;;;;;;;1.27;1.17;;;;;;;27.12;54.37;99579.63;1770513;81;21237;-81
2022/08/03 15:16:30;;;;;;;3.98;1.27;;;;;;;27.12;54.67;99579.05;1745189;81;21177;-80